Time;durP1;ratioP1;P1;durP2;ratioP2;P2;SDS_P1;SDS_P2;PMS_P1;PMS_P2;Temp;Humidity;BMP_temperature;BMP_pressure;BME280_temperature;BME280_humidity;BME280_pressure;Samples;Min_cycle;Max_cycle;Signal;HPM_P1;HPM_P2
2022/10/16 00:00:36;;;;;;;;;;;;;;;5.38;62.59;102132.80;1714121;82;27502;-59
2022/10/16 00:03:05;;;;;;;;;;;;;;;5.36;62.61;102133.36;1680653;82;25756;-59
2022/10/16 00:05:31;;;;;;;;;;;;;;;5.34;62.72;102143.23;1728641;83;25758;-59
2022/10/16 00:07:58;;;;;;;;;;;;;;;5.29;63.10;102139.44;1692321;83;27945;-58
2022/10/16 00:10:24;;;;;;;;;;;;;;;5.24;63.12;102139.23;1697124;83;25790;-59
2022/10/16 00:12:51;;;;;;;;;;;;;;;5.22;62.97;102142.43;1724302;82;27642;-59
2022/10/16 00:15:17;;;;;;;;;;;;;;;5.20;63.04;102135.84;1718965;83;26497;-59
2022/10/16 00:17:44;;;;;;;;;;;;;;;5.22;63.32;102138.43;1697950;83;25772;-58
2022/10/16 00:20:11;;;;;;;;;;;;;;;5.19;63.36;102143.44;1686266;83;25813;-59
2022/10/16 00:22:37;;;;;;;;;;;;;;;5.17;63.50;102138.63;1688362;84;26433;-59
2022/10/16 00:25:04;;;;;;;;;;;;;;;5.16;63.18;102142.23;1683870;85;27684;-59
2022/10/16 00:27:31;;;;;;;;;;;;;;;5.13;63.44;102140.56;1707296;82;26297;-58
2022/10/16 00:29:58;;;;;;;;;;;;;;;5.12;63.74;102137.50;1706416;82;25821;-58
2022/10/16 00:32:25;;;;;;;;;;;;;;;5.10;63.62;102133.17;1716469;82;25812;-59
2022/10/16 00:34:53;;;;;;;;;;;;;;;5.09;63.62;102136.31;1735918;82;25729;-60
2022/10/16 00:37:19;;;;;;;;;;;;;;;5.08;63.65;102142.58;1736068;82;28324;-59
2022/10/16 00:39:46;;;;;;;;;;;;;;;5.05;63.64;102145.37;1717777;82;25738;-60
2022/10/16 00:42:18;;;;;;;;;;;;;;;5.01;63.58;102145.98;1717206;82;25818;-59
2022/10/16 00:44:49;;;;;;;;;;;;;;;5.00;64.35;102152.23;1679329;85;26596;-58
2022/10/16 00:47:19;;;;;;;;;;;;;;;4.94;64.01;102148.52;1720404;82;26482;-59
2022/10/16 00:49:48;;;;;;;;;;;;;;;4.94;64.34;102149.84;1729357;82;28252;-59
2022/10/16 00:52:15;;;;;;;;;;;;;;;4.93;64.04;102150.77;1721365;82;25462;-59
2022/10/16 00:54:41;;;;;;;;;;;;;;;4.94;64.52;102151.17;1735174;82;25476;-60
2022/10/16 00:57:07;;;;;;;;;;;;;;;4.96;64.38;102150.66;1687030;82;26650;-60
2022/10/16 00:59:37;;;;;;;;;;;;;;;4.98;64.52;102151.91;1712581;82;25734;-59
2022/10/16 01:02:06;;;;;;;;;;;;;;;4.97;64.43;102148.84;1729719;82;27479;-59
2022/10/16 01:04:36;;;;;;;;;;;;;;;4.98;64.84;102152.77;1710941;82;25849;-59
2022/10/16 01:07:12;;;;;;;;;;;;;;;4.98;64.68;102145.24;1686513;84;25480;-59
2022/10/16 01:10:03;;;;;;;;;;;;;;;4.98;65.03;102152.77;1666392;82;25842;-60
2022/10/16 01:12:35;;;;;;;;;;;;;;;4.92;64.81;102153.03;1706324;82;25725;-59
2022/10/16 01:15:12;;;;;;;;;;;;;;;4.94;64.97;102156.96;1725084;82;27415;-59
2022/10/16 01:17:53;;;;;;;;;;;;;;;4.93;64.79;102154.77;1718904;82;26076;-58
2022/10/16 01:20:26;;;;;;;;;;;;;;;4.94;64.63;102154.30;1679320;85;25758;-58
2022/10/16 01:23:11;;;;;;;;;;;;;;;4.95;64.93;102164.03;1712664;82;26938;-58
2022/10/16 01:26:04;;;;;;;;;;;;;;;4.95;64.81;102159.58;1737080;82;26440;-58
2022/10/16 01:28:36;;;;;;;;;;;;;;;4.96;64.72;102157.32;1734656;82;27508;-58
2022/10/16 01:31:03;;;;;;;;;;;;;;;4.92;64.70;102166.38;1735541;82;25807;-59
2022/10/16 01:33:46;;;;;;;;;;;;;;;4.92;64.82;102170.85;1736049;82;25757;-58
2022/10/16 01:36:18;;;;;;;;;;;;;;;4.89;64.75;102172.30;1711699;82;26545;-58
2022/10/16 01:38:47;;;;;;;;;;;;;;;4.90;65.15;102172.70;1736137;82;25724;-59
2022/10/16 01:41:20;;;;;;;;;;;;;;;4.89;65.13;102173.16;1712191;82;28431;-59
2022/10/16 01:43:50;;;;;;;;;;;;;;;4.89;65.17;102178.97;1734834;82;25518;-59
2022/10/16 01:46:19;;;;;;;;;;;;;;;4.90;65.18;102180.70;1734481;82;25753;-60
2022/10/16 01:48:46;;;;;;;;;;;;;;;4.91;65.47;102182.45;1736336;82;26504;-58
2022/10/16 01:51:15;;;;;;;;;;;;;;;4.91;65.51;102180.63;1714147;82;25888;-58
2022/10/16 01:53:44;;;;;;;;;;;;;;;4.91;65.08;102185.97;1696720;82;27550;-59
2022/10/16 01:56:12;;;;;;;;;;;;;;;4.90;65.01;102180.23;1685389;82;25775;-59
2022/10/16 01:58:42;;;;;;;;;;;;;;;4.89;65.07;102185.16;1710247;82;25810;-58
2022/10/16 02:01:11;;;;;;;;;;;;;;;4.90;65.21;102185.56;1702083;82;25806;-58
2022/10/16 02:03:39;;;;;;;;;;;;;;;4.89;65.24;102187.83;1736234;82;25706;-59
2022/10/16 02:06:07;;;;;;;;;;;;;;;4.88;65.31;102184.78;1734728;82;27541;-60
2022/10/16 02:08:34;;;;;;;;;;;;;;;4.90;65.04;102194.89;1734646;82;25745;-58
2022/10/16 02:11:01;;;;;;;;;;;;;;;4.89;65.09;102190.48;1705546;82;25721;-59
2022/10/16 02:13:52;;;;;;;;;;;;;;;4.88;64.99;102193.23;1690740;82;25744;-60
2022/10/16 02:16:19;;;;;;;;;;;;;;;4.85;65.16;102193.75;1703276;84;25729;-59
2022/10/16 02:18:45;;;;;;;;;;;;;;;4.83;64.98;102196.09;1719492;82;27448;-58
2022/10/16 02:21:26;;;;;;;;;;;;;;;4.79;64.93;102196.69;1736190;81;25696;-59
2022/10/16 02:24:17;;;;;;;;;;;;;;;4.74;64.90;102196.47;1729920;82;26422;-59
2022/10/16 02:26:47;;;;;;;;;;;;;;;4.67;64.68;102204.73;1726473;82;25825;-59
2022/10/16 02:29:17;;;;;;;;;;;;;;;4.62;64.64;102210.69;1715521;82;25869;-59
2022/10/16 02:31:47;;;;;;;;;;;;;;;4.62;64.64;102212.02;1735567;82;27503;-59
2022/10/16 02:34:15;;;;;;;;;;;;;;;4.61;64.77;102210.31;1736071;82;26194;-59
2022/10/16 02:36:42;;;;;;;;;;;;;;;4.61;64.95;102215.65;1698860;82;26521;-58
2022/10/16 02:39:10;;;;;;;;;;;;;;;4.58;64.86;102210.43;1696402;82;26621;-59
2022/10/16 02:41:37;;;;;;;;;;;;;;;4.58;65.01;102217.09;1689685;82;26071;-59
2022/10/16 02:44:04;;;;;;;;;;;;;;;4.62;65.18;102217.36;1727380;82;28305;-59
2022/10/16 02:46:30;;;;;;;;;;;;;;;4.66;65.28;102215.47;1735713;82;25781;-59
2022/10/16 02:48:57;;;;;;;;;;;;;;;4.68;65.19;102213.58;1723100;82;25731;-59
2022/10/16 02:51:23;;;;;;;;;;;;;;;4.70;65.12;102218.39;1689292;82;25847;-59
2022/10/16 02:53:50;;;;;;;;;;;;;;;4.72;65.10;102216.98;1684256;82;25905;-59
2022/10/16 02:56:17;;;;;;;;;;;;;;;4.73;65.18;102220.05;1707391;83;27389;-59
2022/10/16 02:58:43;;;;;;;;;;;;;;;4.72;65.11;102219.20;1707719;82;25793;-59
2022/10/16 03:01:12;;;;;;;;;;;;;;;4.70;65.02;102215.27;1728555;83;25621;-59
2022/10/16 03:03:39;;;;;;;;;;;;;;;4.68;64.70;102218.91;1722784;83;26101;-59
2022/10/16 03:06:05;;;;;;;;;;;;;;;4.63;64.58;102222.23;1707115;82;25824;-59
2022/10/16 03:08:32;;;;;;;;;;;;;;;4.57;64.69;102227.34;1709906;82;27457;-60
2022/10/16 03:10:58;;;;;;;;;;;;;;;4.51;64.42;102226.27;1723284;82;25745;-59
2022/10/16 03:13:27;;;;;;;;;;;;;;;4.44;64.11;102237.63;1706087;84;25764;-60
2022/10/16 03:15:53;;;;;;;;;;;;;;;4.37;64.33;102239.66;1701853;82;25814;-59
2022/10/16 03:18:20;;;;;;;;;;;;;;;4.28;64.14;102244.01;1692087;84;25730;-59
2022/10/16 03:20:46;;;;;;;;;;;;;;;4.20;64.22;102246.09;1698381;82;25858;-60
2022/10/16 03:23:13;;;;;;;;;;;;;;;4.12;64.27;102247.74;1735914;82;25757;-60
2022/10/16 03:25:39;;;;;;;;;;;;;;;4.05;64.31;102249.76;1735770;82;25852;-58
2022/10/16 03:28:06;;;;;;;;;;;;;;;3.96;64.21;102249.22;1737061;82;26351;-58
2022/10/16 03:30:33;;;;;;;;;;;;;;;3.88;64.35;102258.36;1734529;82;25700;-59
2022/10/16 03:32:59;;;;;;;;;;;;;;;3.82;64.54;102250.61;1706819;82;28180;-59
2022/10/16 03:35:26;;;;;;;;;;;;;;;3.76;64.64;102262.34;1706187;82;25486;-59
2022/10/16 03:37:52;;;;;;;;;;;;;;;3.72;64.58;102266.50;1707688;82;25765;-58
2022/10/16 03:40:20;;;;;;;;;;;;;;;3.70;64.76;102269.67;1723479;82;25873;-58
2022/10/16 03:42:46;;;;;;;;;;;;;;;3.66;64.77;102282.22;1736899;82;25784;-58
2022/10/16 03:45:13;;;;;;;;;;;;;;;3.63;64.88;102274.33;1686716;82;28305;-58
2022/10/16 03:47:40;;;;;;;;;;;;;;;3.59;64.92;102276.23;1717618;82;25764;-58
2022/10/16 03:50:08;;;;;;;;;;;;;;;3.56;65.12;102273.70;1726320;82;25691;-59
2022/10/16 03:52:34;;;;;;;;;;;;;;;3.54;65.20;102270.22;1715725;82;25944;-58
2022/10/16 03:55:01;;;;;;;;;;;;;;;3.53;65.02;102277.79;1716687;82;25706;-58
2022/10/16 03:57:28;;;;;;;;;;;;;;;3.50;65.12;102277.03;1731239;82;27619;-58
2022/10/16 03:59:54;;;;;;;;;;;;;;;3.47;65.13;102276.68;1713963;82;25766;-59
2022/10/16 04:02:21;;;;;;;;;;;;;;;3.43;65.17;102279.91;1694629;84;25690;-58
2022/10/16 04:04:47;;;;;;;;;;;;;;;3.42;65.40;102278.17;1725448;82;26988;-58
2022/10/16 04:07:13;;;;;;;;;;;;;;;3.39;65.17;102279.59;1734682;82;25751;-58
2022/10/16 04:09:40;;;;;;;;;;;;;;;3.40;65.58;102273.36;1735745;82;28365;-58
2022/10/16 04:12:06;;;;;;;;;;;;;;;3.40;65.52;102269.84;1712223;82;25771;-59
2022/10/16 04:14:33;;;;;;;;;;;;;;;3.42;65.56;102270.19;1736709;82;25704;-59
2022/10/16 04:16:59;;;;;;;;;;;;;;;3.42;65.62;102268.86;1726241;82;25801;-58
2022/10/16 04:19:26;;;;;;;;;;;;;;;3.43;65.63;102269.72;1730775;82;25793;-59
2022/10/16 04:21:52;;;;;;;;;;;;;;;3.44;65.71;102275.00;1693916;84;27627;-59
2022/10/16 04:24:19;;;;;;;;;;;;;;;3.49;65.70;102279.28;1666904;85;25778;-59
2022/10/16 04:26:46;;;;;;;;;;;;;;;3.50;65.67;102265.91;1693579;82;25745;-58
2022/10/16 04:29:12;;;;;;;;;;;;;;;3.52;65.82;102273.86;1731673;82;25800;-58
2022/10/16 04:31:38;;;;;;;;;;;;;;;3.53;65.61;102282.26;1735736;82;25720;-58
2022/10/16 04:34:05;;;;;;;;;;;;;;;3.54;65.65;102284.00;1736597;82;27512;-58
2022/10/16 04:36:32;;;;;;;;;;;;;;;3.54;65.65;102286.66;1700321;82;25758;-58
2022/10/16 04:38:58;;;;;;;;;;;;;;;3.53;65.58;102286.25;1716673;82;25465;-58
2022/10/16 04:41:26;;;;;;;;;;;;;;;3.51;65.36;102288.94;1726128;82;25805;-59
2022/10/16 04:43:52;;;;;;;;;;;;;;;3.52;65.56;102292.02;1735603;82;27327;-59
2022/10/16 04:46:19;;;;;;;;;;;;;;;3.52;65.53;102293.82;1735907;82;27542;-60
2022/10/16 04:48:46;;;;;;;;;;;;;;;3.53;65.54;102299.08;1709712;82;25735;-59
2022/10/16 04:51:13;;;;;;;;;;;;;;;3.57;65.64;102305.16;1719439;82;25746;-59
2022/10/16 04:53:40;;;;;;;;;;;;;;;3.61;65.69;102312.13;1713185;82;25819;-60
2022/10/16 04:56:06;;;;;;;;;;;;;;;3.63;65.59;102318.24;1690817;84;25719;-59
2022/10/16 04:58:33;;;;;;;;;;;;;;;3.64;65.57;102315.14;1708620;82;28242;-59
2022/10/16 05:00:59;;;;;;;;;;;;;;;3.68;65.65;102320.30;1716977;83;25810;-59
2022/10/16 05:03:26;;;;;;;;;;;;;;;3.71;65.65;102324.20;1699883;84;26776;-59
2022/10/16 05:05:52;;;;;;;;;;;;;;;3.73;65.78;102324.99;1701200;82;25844;-59
2022/10/16 05:08:18;;;;;;;;;;;;;;;3.77;65.69;102324.42;1702207;82;25605;-59
2022/10/16 05:10:45;;;;;;;;;;;;;;;3.81;65.68;102334.53;1700143;82;28551;-59
2022/10/16 05:13:12;;;;;;;;;;;;;;;3.83;65.58;102339.31;1703602;82;25809;-59
2022/10/16 05:15:39;;;;;;;;;;;;;;;3.83;65.53;102336.20;1698345;82;25804;-59
2022/10/16 05:18:05;;;;;;;;;;;;;;;3.85;65.55;102341.47;1698221;83;25859;-58
2022/10/16 05:20:32;;;;;;;;;;;;;;;3.86;65.53;102349.39;1700801;82;25785;-58
2022/10/16 05:22:58;;;;;;;;;;;;;;;3.86;65.34;102349.86;1703440;83;27588;-58
2022/10/16 05:25:24;;;;;;;;;;;;;;;3.85;65.51;102353.00;1703107;82;25727;-58
2022/10/16 05:27:51;;;;;;;;;;;;;;;3.87;65.81;102352.94;1701085;82;25753;-58
2022/10/16 05:30:18;;;;;;;;;;;;;;;3.87;65.37;102352.94;1700992;82;25877;-59
2022/10/16 05:32:49;;;;;;;;;;;;;;;3.88;65.68;102357.34;1698296;84;25927;-59
2022/10/16 05:35:17;;;;;;;;;;;;;;;3.91;65.92;102363.88;1695185;82;27557;-59
2022/10/16 05:37:44;;;;;;;;;;;;;;;3.93;65.69;102368.69;1729196;82;25494;-60
2022/10/16 05:40:12;;;;;;;;;;;;;;;3.96;65.72;102368.59;1703034;82;25697;-60
2022/10/16 05:42:40;;;;;;;;;;;;;;;3.98;65.80;102368.09;1697831;82;26003;-59
2022/10/16 05:45:09;;;;;;;;;;;;;;;4.01;65.93;102371.09;1704092;82;25787;-58
2022/10/16 05:47:35;;;;;;;;;;;;;;;4.06;65.87;102375.78;1701733;82;27477;-59
2022/10/16 05:50:04;;;;;;;;;;;;;;;4.11;65.85;102383.61;1713039;82;25825;-60
2022/10/16 05:52:30;;;;;;;;;;;;;;;4.15;65.75;102375.94;1703610;82;25638;-59
2022/10/16 05:54:57;;;;;;;;;;;;;;;4.18;65.56;102387.34;1702226;84;25786;-60
2022/10/16 05:57:23;;;;;;;;;;;;;;;4.24;65.43;102382.27;1700840;82;25955;-59
2022/10/16 05:59:50;;;;;;;;;;;;;;;4.29;65.57;102380.77;1700327;82;27435;-59
2022/10/16 06:02:17;;;;;;;;;;;;;;;4.33;65.65;102388.59;1731240;82;25796;-59
2022/10/16 06:04:44;;;;;;;;;;;;;;;4.39;65.41;102392.83;1692619;82;25765;-59
2022/10/16 06:07:10;;;;;;;;;;;;;;;4.46;65.38;102396.12;1726835;82;25793;-59
2022/10/16 06:09:37;;;;;;;;;;;;;;;4.50;65.34;102399.95;1706846;82;25849;-59
2022/10/16 06:12:03;;;;;;;;;;;;;;;4.55;65.40;102405.11;1733150;82;27490;-59
2022/10/16 06:14:30;;;;;;;;;;;;;;;4.61;65.30;102413.34;1721323;82;25786;-60
2022/10/16 06:16:56;;;;;;;;;;;;;;;4.64;65.20;102403.43;1704850;82;25712;-59
2022/10/16 06:19:23;;;;;;;;;;;;;;;4.69;65.18;102406.81;1705371;82;25811;-59
2022/10/16 06:21:49;;;;;;;;;;;;;;;4.75;65.38;102408.83;1700150;82;25754;-59
2022/10/16 06:24:15;;;;;;;;;;;;;;;4.80;65.88;102408.17;1702181;84;27477;-59
2022/10/16 06:26:42;;;;;;;;;;;;;;;4.86;66.18;102411.97;1700163;82;25887;-59
2022/10/16 06:29:09;;;;;;;;;;;;;;;4.92;66.15;102410.39;1727505;82;25725;-59
2022/10/16 06:31:36;;;;;;;;;;;;;;;4.98;65.89;102408.80;1681859;82;25782;-58
2022/10/16 06:34:04;;;;;;;;;;;;;;;5.06;66.04;102412.52;1734723;82;25443;-59
2022/10/16 06:36:30;;;;;;;;;;;;;;;5.14;66.11;102413.09;1703296;81;27600;-58
2022/10/16 06:38:57;;;;;;;;;;;;;;;5.20;66.31;102417.31;1684707;82;25873;-60
2022/10/16 06:41:24;;;;;;;;;;;;;;;5.29;67.07;102424.95;1700930;82;25857;-59
2022/10/16 06:43:52;;;;;;;;;;;;;;;5.37;66.56;102427.78;1713984;82;25864;-59
2022/10/16 06:46:21;;;;;;;;;;;;;;;5.47;66.27;102425.14;1706084;83;25520;-59
2022/10/16 06:48:47;;;;;;;;;;;;;;;5.54;66.39;102429.30;1713202;83;27611;-58
2022/10/16 06:51:17;;;;;;;;;;;;;;;5.62;66.56;102412.49;1706075;82;25786;-58
2022/10/16 06:53:45;;;;;;;;;;;;;;;5.75;66.34;102421.34;1713423;83;25816;-58
2022/10/16 06:56:19;;;;;;;;;;;;;;;5.84;66.53;102425.41;1714221;82;25786;-58
2022/10/16 06:58:46;;;;;;;;;;;;;;;5.95;66.24;102424.50;1717889;82;25797;-58
2022/10/16 07:01:14;;;;;;;;;;;;;;;6.05;66.18;102421.02;1712970;83;27537;-59
2022/10/16 07:03:42;;;;;;;;;;;;;;;6.18;66.15;102421.35;1717280;82;25687;-59
2022/10/16 07:06:10;;;;;;;;;;;;;;;6.33;66.51;102423.34;1684820;83;25852;-59
2022/10/16 07:08:39;;;;;;;;;;;;;;;6.49;66.17;102426.20;1713218;83;26324;-58
2022/10/16 07:11:08;;;;;;;;;;;;;;;6.65;66.27;102421.02;1708280;82;25443;-58
2022/10/16 07:13:36;;;;;;;;;;;;;;;6.82;66.10;102424.72;1716259;82;27677;-58
2022/10/16 07:16:09;;;;;;;;;;;;;;;6.98;65.72;102421.75;1735329;82;25725;-58
2022/10/16 07:18:38;;;;;;;;;;;;;;;7.17;65.48;102420.88;1713103;83;25758;-58
2022/10/16 07:21:10;;;;;;;;;;;;;;;7.35;65.33;102421.30;1708477;82;25835;-59
2022/10/16 07:23:37;;;;;;;;;;;;;;;7.53;65.27;102420.00;1709115;82;25677;-60
2022/10/16 07:26:04;;;;;;;;;;;;;;;7.74;64.40;102427.47;1686201;83;27488;-61
2022/10/16 07:28:32;;;;;;;;;;;;;;;7.90;63.39;102426.69;1728644;83;25859;-57
2022/10/16 07:31:04;;;;;;;;;;;;;;;8.03;63.54;102424.24;1721459;83;25764;-59
2022/10/16 07:33:32;;;;;;;;;;;;;;;8.21;63.32;102433.13;1682527;84;25767;-59
2022/10/16 07:35:58;;;;;;;;;;;;;;;8.34;63.10;102434.72;1692059;83;25771;-60
2022/10/16 07:38:25;;;;;;;;;;;;;;;8.48;62.69;102437.56;1666488;86;29647;-59
2022/10/16 07:41:01;;;;;;;;;;;;;;;8.63;62.45;102435.00;1680117;84;25797;-59
2022/10/16 07:43:28;;;;;;;;;;;;;;;8.81;62.16;102443.88;1666955;83;25738;-59
2022/10/16 07:45:55;;;;;;;;;;;;;;;8.96;61.79;102442.19;1666597;83;25815;-60
2022/10/16 07:48:23;;;;;;;;;;;;;;;9.12;61.22;102443.52;1726941;83;25951;-59
2022/10/16 07:50:50;;;;;;;;;;;;;;;9.29;61.28;102435.88;1711168;83;27474;-60
2022/10/16 07:53:16;;;;;;;;;;;;;;;9.46;61.17;102446.52;1674545;83;25955;-58
2022/10/16 07:55:42;;;;;;;;;;;;;;;9.66;60.50;102448.05;1706298;83;25826;-60
2022/10/16 07:58:10;;;;;;;;;;;;;;;9.82;60.14;102448.49;1692513;83;25801;-59
2022/10/16 08:00:37;;;;;;;;;;;;;;;9.98;59.47;102440.39;1680526;83;25887;-58
2022/10/16 08:03:04;;;;;;;;;;;;;;;10.18;57.76;102442.77;1727790;83;27456;-60
2022/10/16 08:05:32;;;;;;;;;;;;;;;10.35;58.09;102444.91;1728677;82;25708;-61
2022/10/16 08:07:59;;;;;;;;;;;;;;;10.52;57.06;102435.84;1673061;83;25728;-60
2022/10/16 08:10:27;;;;;;;;;;;;;;;10.72;56.79;102431.91;1691855;83;25813;-60
2022/10/16 08:12:53;;;;;;;;;;;;;;;10.92;56.25;102436.02;1718536;83;25738;-61
2022/10/16 08:15:20;;;;;;;;;;;;;;;11.15;56.32;102436.39;1687704;82;27433;-60
2022/10/16 08:18:02;;;;;;;;;;;;;;;11.40;55.28;102438.83;1712320;83;25736;-61
2022/10/16 08:20:29;;;;;;;;;;;;;;;11.67;55.25;102433.92;1685256;82;25766;-60
2022/10/16 08:22:56;;;;;;;;;;;;;;;11.90;54.65;102429.67;1693420;83;25988;-59
2022/10/16 08:25:23;;;;;;;;;;;;;;;12.12;53.71;102425.05;1689735;83;25902;-59
2022/10/16 08:27:50;;;;;;;;;;;;;;;12.34;53.08;102425.78;1699236;83;28269;-59
2022/10/16 08:30:19;;;;;;;;;;;;;;;12.63;51.08;102435.02;1669249;84;25798;-59
2022/10/16 08:32:46;;;;;;;;;;;;;;;12.88;51.46;102426.97;1695627;82;25703;-60
2022/10/16 08:35:14;;;;;;;;;;;;;;;13.15;51.32;102426.81;1735376;82;26494;-59
2022/10/16 08:37:41;;;;;;;;;;;;;;;13.44;49.98;102419.27;1708427;82;25741;-59
2022/10/16 08:40:18;;;;;;;;;;;;;;;13.74;49.34;102419.77;1704049;84;28375;-59
2022/10/16 08:43:08;;;;;;;;;;;;;;;14.05;49.72;102413.37;1726054;82;25936;-59
2022/10/16 08:45:54;;;;;;;;;;;;;;;14.33;44.73;102406.66;1697330;82;25725;-60
2022/10/16 08:48:43;;;;;;;;;;;;;;;14.63;45.11;102400.27;1726202;82;25897;-60
2022/10/16 08:51:12;;;;;;;;;;;;;;;14.97;44.79;102402.52;1705943;82;25681;-61
2022/10/16 08:53:42;;;;;;;;;;;;;;;15.26;43.95;102401.97;1679601;85;28271;-60
2022/10/16 08:56:09;;;;;;;;;;;;;;;15.58;42.99;102411.12;1690012;82;25762;-60
2022/10/16 08:58:36;;;;;;;;;;;;;;;15.96;42.70;102411.08;1714359;83;25770;-59
2022/10/16 09:01:05;;;;;;;;;;;;;;;16.51;42.75;102416.78;1729979;83;26948;-59
2022/10/16 09:03:37;;;;;;;;;;;;;;;17.23;40.63;102414.92;1723011;82;25957;-60
2022/10/16 09:06:28;;;;;;;;;;;;;;;18.15;36.11;102407.38;1706405;82;27555;-59
2022/10/16 09:09:03;;;;;;;;;;;;;;;19.08;36.45;102410.72;1699161;83;25794;-58
2022/10/16 09:11:39;;;;;;;;;;;;;;;19.89;34.34;102415.80;1707104;82;25805;-60
2022/10/16 09:14:18;;;;;;;;;;;;;;;20.40;33.56;102417.86;1709101;82;25898;-60
2022/10/16 09:16:47;;;;;;;;;;;;;;;21.13;32.48;102418.41;1701288;82;25742;-60
2022/10/16 09:19:20;;;;;;;;;;;;;;;21.76;31.56;102418.90;1691714;82;27591;-60
2022/10/16 09:21:51;;;;;;;;;;;;;;;22.23;28.76;102418.70;1700209;82;25892;-60
2022/10/16 09:24:20;;;;;;;;;;;;;;;22.75;26.24;102413.28;1737234;82;25677;-60
2022/10/16 09:26:47;;;;;;;;;;;;;;;23.07;26.63;102408.66;1730761;82;26226;-59
2022/10/16 09:29:15;;;;;;;;;;;;;;;23.52;27.30;102413.91;1735932;82;25792;-59
2022/10/16 09:31:43;;;;;;;;;;;;;;;23.81;26.60;102412.81;1735157;82;28301;-60
2022/10/16 09:34:30;;;;;;;;;;;;;;;24.09;24.98;102403.52;1728939;83;25640;-59
2022/10/16 09:36:58;;;;;;;;;;;;;;;24.53;25.65;102404.57;1719748;83;25467;-61
2022/10/16 09:39:25;;;;;;;;;;;;;;;24.99;25.54;102404.38;1673227;84;26506;-60
2022/10/16 09:41:52;;;;;;;;;;;;;;;25.49;26.26;102402.83;1726344;83;25736;-60
2022/10/16 09:44:25;;;;;;;;;;;;;;;25.84;25.20;102407.07;1707985;83;27490;-60
2022/10/16 09:47:04;;;;;;;;;;;;;;;26.34;22.86;102409.30;1716322;82;25809;-59
2022/10/16 09:49:31;;;;;;;;;;;;;;;26.47;22.93;102398.01;1701349;82;25856;-61
2022/10/16 09:52:12;;;;;;;;;;;;;;;26.47;20.11;102396.63;1704305;83;25772;-60
2022/10/16 09:54:52;;;;;;;;;;;;;;;26.59;22.07;102391.38;1709561;82;25947;-60
2022/10/16 09:57:19;;;;;;;;;;;;;;;26.87;22.38;102390.80;1676585;83;27591;-61
2022/10/16 09:59:48;;;;;;;;;;;;;;;27.23;22.04;102383.28;1728849;82;25794;-60
2022/10/16 10:02:18;;;;;;;;;;;;;;;27.49;20.84;102389.41;1727524;82;26615;-60
2022/10/16 10:04:51;;;;;;;;;;;;;;;27.63;20.96;102386.67;1712918;83;25826;-60
2022/10/16 10:07:21;;;;;;;;;;;;;;;27.91;22.20;102378.70;1676186;83;25807;-60
2022/10/16 10:09:47;;;;;;;;;;;;;;;28.17;20.08;102379.20;1700820;83;28302;-60
2022/10/16 10:12:23;;;;;;;;;;;;;;;28.63;19.68;102381.55;1703961;83;26397;-60
2022/10/16 10:14:58;;;;;;;;;;;;;;;29.02;18.63;102376.91;1694882;83;25733;-60
2022/10/16 10:17:27;;;;;;;;;;;;;;;28.84;17.85;102386.48;1688025;83;25902;-61
2022/10/16 10:20:03;;;;;;;;;;;;;;;29.07;19.72;102387.88;1698700;83;25757;-60
2022/10/16 10:22:37;;;;;;;;;;;;;;;29.19;18.66;102380.53;1714223;83;27732;-61
2022/10/16 10:25:12;;;;;;;;;;;;;;;29.49;19.23;102381.34;1698609;82;25927;-59
2022/10/16 10:28:01;;;;;;;;;;;;;;;29.57;17.46;102381.05;1725698;83;25774;-60
2022/10/16 10:30:37;;;;;;;;;;;;;;;29.94;18.52;102391.47;1698955;83;25816;-60
2022/10/16 10:33:28;;;;;;;;;;;;;;;30.24;18.73;102388.81;1715192;82;25795;-61
2022/10/16 10:36:18;;;;;;;;;;;;;;;30.50;18.35;102383.17;1731630;82;27775;-60
2022/10/16 10:38:56;;;;;;;;;;;;;;;30.66;17.91;102374.80;1730229;82;25711;-59
2022/10/16 10:41:32;;;;;;;;;;;;;;;30.69;16.78;102374.34;1697123;82;25525;-60
2022/10/16 10:44:37;;;;;;;;;;;;;;;30.82;17.26;102371.38;1701999;82;26573;-60
2022/10/16 10:47:13;;;;;;;;;;;;;;;30.81;15.63;102370.23;1679486;84;25859;-60
2022/10/16 10:49:58;;;;;;;;;;;;;;;31.12;17.08;102363.62;1683268;82;27536;-60
2022/10/16 10:52:40;;;;;;;;;;;;;;;31.20;17.14;102361.89;1680076;83;26192;-60
2022/10/16 10:55:25;;;;;;;;;;;;;;;31.33;15.96;102361.39;1684708;82;25687;-60
2022/10/16 10:57:59;;;;;;;;;;;;;;;31.57;16.77;102355.87;1704405;82;25836;-60
2022/10/16 11:00:43;;;;;;;;;;;;;;;31.76;14.82;102350.55;1679424;85;25651;-60
2022/10/16 11:03:40;;;;;;;;;;;;;;;31.10;16.01;102359.36;1701447;82;27521;-60
2022/10/16 11:06:16;;;;;;;;;;;;;;;31.08;16.05;102354.02;1706928;82;25804;-59
2022/10/16 11:08:54;;;;;;;;;;;;;;;31.26;16.40;102337.86;1707236;82;25770;-60
2022/10/16 11:11:29;;;;;;;;;;;;;;;31.22;16.62;102343.05;1710471;82;26722;-60
2022/10/16 11:14:12;;;;;;;;;;;;;;;31.27;16.17;102340.09;1724282;82;25458;-60
2022/10/16 11:16:48;;;;;;;;;;;;;;;30.80;16.20;102333.81;1685963;83;27674;-61
2022/10/16 11:19:43;;;;;;;;;;;;;;;30.38;16.07;102325.67;1712662;82;25729;-60
2022/10/16 11:22:28;;;;;;;;;;;;;;;29.67;16.15;102326.50;1731405;82;25776;-60
2022/10/16 11:25:15;;;;;;;;;;;;;;;29.26;16.30;102331.48;1728818;82;26502;-59
2022/10/16 11:28:02;;;;;;;;;;;;;;;28.82;16.30;102334.09;1706616;82;25678;-60
2022/10/16 11:30:31;;;;;;;;;;;;;;;28.49;16.73;102328.16;1732039;82;28478;-61
2022/10/16 11:33:10;;;;;;;;;;;;;;;28.24;16.71;102330.78;1708872;82;25978;-60
2022/10/16 11:35:52;;;;;;;;;;;;;;;27.96;17.18;102320.81;1707713;83;25758;-60
2022/10/16 11:38:43;;;;;;;;;;;;;;;27.68;17.88;102314.16;1679288;85;25854;-59
2022/10/16 11:41:28;;;;;;;;;;;;;;;27.52;17.88;102312.66;1696797;82;25735;-60
2022/10/16 11:44:16;;;;;;;;;;;;;;;27.44;17.75;102312.33;1666019;85;27507;-60
2022/10/16 11:46:55;;;;;;;;;;;;;;;27.08;18.22;102315.78;1670120;84;25896;-61
2022/10/16 11:49:24;;;;;;;;;;;;;;;26.82;17.96;102315.18;1710854;82;25727;-62
2022/10/16 11:51:57;;;;;;;;;;;;;;;26.49;17.89;102316.72;1718318;82;25776;-61
2022/10/16 11:54:53;;;;;;;;;;;;;;;26.05;18.50;102314.67;1709989;82;25944;-59
2022/10/16 11:57:32;;;;;;;;;;;;;;;25.73;19.18;102316.98;1706781;82;28144;-60
2022/10/16 12:00:18;;;;;;;;;;;;;;;25.45;19.54;102317.84;1736884;82;25475;-59
2022/10/16 12:02:48;;;;;;;;;;;;;;;25.44;19.79;102320.27;1697055;82;25437;-60
2022/10/16 12:05:34;;;;;;;;;;;;;;;25.47;19.78;102321.77;1737209;81;26626;-60
2022/10/16 12:08:10;;;;;;;;;;;;;;;25.53;19.97;102320.12;1690820;82;26355;-60
2022/10/16 12:10:38;;;;;;;;;;;;;;;25.54;18.73;102321.83;1700062;82;27541;-61
2022/10/16 12:13:07;;;;;;;;;;;;;;;25.59;18.59;102325.69;1733804;82;25836;-61
2022/10/16 12:15:34;;;;;;;;;;;;;;;25.28;19.34;102325.47;1684062;82;25623;-59
2022/10/16 12:18:01;;;;;;;;;;;;;;;25.13;19.03;102332.95;1722795;82;25776;-60
2022/10/16 12:20:31;;;;;;;;;;;;;;;25.22;19.41;102329.03;1737317;82;25733;-60
2022/10/16 12:23:03;;;;;;;;;;;;;;;25.38;19.62;102327.05;1734788;82;27529;-61
2022/10/16 12:25:35;;;;;;;;;;;;;;;25.78;19.54;102330.16;1701243;82;25897;-60
2022/10/16 12:28:17;;;;;;;;;;;;;;;26.07;19.02;102326.36;1696311;82;25755;-60
2022/10/16 12:30:56;;;;;;;;;;;;;;;26.66;19.49;102334.33;1708287;82;25864;-58
2022/10/16 12:33:34;;;;;;;;;;;;;;;27.41;19.16;102337.07;1728106;82;25744;-60
2022/10/16 12:36:05;;;;;;;;;;;;;;;28.05;18.00;102332.51;1734119;82;27493;-60
2022/10/16 12:38:37;;;;;;;;;;;;;;;28.54;16.19;102328.33;1679158;84;25723;-60
2022/10/16 12:41:10;;;;;;;;;;;;;;;28.81;17.15;102335.70;1703236;82;25743;-60
2022/10/16 12:43:43;;;;;;;;;;;;;;;29.30;17.03;102325.79;1717102;82;25898;-61
2022/10/16 12:46:13;;;;;;;;;;;;;;;29.87;17.09;102324.05;1702286;82;25796;-61
2022/10/16 12:48:43;;;;;;;;;;;;;;;30.62;15.44;102320.81;1701519;84;28202;-61
2022/10/16 12:51:31;;;;;;;;;;;;;;;31.02;15.64;102329.96;1704070;82;25791;-61
2022/10/16 12:53:59;;;;;;;;;;;;;;;31.58;15.31;102319.46;1690626;82;25496;-60
2022/10/16 12:56:57;;;;;;;;;;;;;;;31.93;14.13;102320.59;1697595;82;25836;-60
2022/10/16 12:59:52;;;;;;;;;;;;;;;31.67;14.46;102322.22;1699729;82;25468;-61
2022/10/16 13:02:42;;;;;;;;;;;;;;;32.07;14.51;102319.79;1730067;82;27591;-61